createdAt,value
2019-05-09T00:02:03.726Z,24.57
2019-05-09T00:04:34.688Z,26.97
2019-05-09T00:07:05.980Z,27.62
2019-05-09T00:09:34.437Z,25.07
2019-05-09T00:12:05.923Z,25.35
2019-05-09T00:14:35.286Z,24.00
2019-05-09T00:17:03.944Z,25.50
2019-05-09T00:19:33.337Z,24.27
2019-05-09T00:22:03.249Z,22.07
2019-05-09T00:24:33.241Z,22.07
2019-05-09T00:27:03.876Z,19.40
2019-05-09T00:29:37.288Z,17.07
2019-05-09T00:32:10.025Z,17.40
2019-05-09T00:34:40.095Z,15.58
2019-05-09T00:37:09.569Z,12.43
2019-05-09T00:39:37.971Z,10.97
2019-05-09T00:42:07.997Z,9.90
2019-05-09T00:44:53.340Z,9.78
2019-05-09T00:47:23.996Z,8.43
2019-05-09T00:49:55.166Z,9.23
2019-05-09T00:52:23.599Z,9.15
2019-05-09T00:54:57.518Z,9.53
2019-05-09T00:57:34.767Z,9.93
2019-05-09T01:00:14.537Z,9.50
2019-05-09T01:02:43.541Z,8.65
2019-05-09T01:05:13.296Z,10.28
2019-05-09T01:07:43.089Z,9.63
2019-05-09T01:10:13.362Z,9.00
2019-05-09T01:12:43.497Z,9.18
2019-05-09T01:15:13.351Z,9.15
2019-05-09T01:17:44.037Z,9.00
2019-05-09T01:20:14.568Z,8.87
2019-05-09T01:22:43.642Z,8.80
2019-05-09T01:25:13.455Z,8.93
2019-05-09T01:27:43.184Z,9.50
2019-05-09T01:30:13.543Z,9.68
2019-05-09T01:32:49.834Z,10.15
2019-05-09T01:35:18.240Z,10.60
2019-05-09T01:37:46.648Z,10.93
2019-05-09T01:40:17.775Z,12.25
2019-05-09T01:42:45.323Z,11.68
2019-05-09T01:45:14.220Z,12.93
2019-05-09T01:47:43.079Z,12.23
2019-05-09T01:50:14.248Z,13.18
2019-05-09T01:52:43.785Z,12.80
2019-05-09T01:55:23.478Z,12.87
2019-05-09T01:57:54.408Z,12.23
2019-05-09T02:00:23.954Z,11.68
2019-05-09T02:02:54.091Z,11.28
2019-05-09T02:05:24.067Z,10.15
2019-05-09T02:07:55.358Z,9.53
2019-05-09T02:10:23.777Z,9.45
2019-05-09T02:12:53.812Z,9.00
2019-05-09T02:15:43.465Z,8.05
2019-05-09T02:18:16.203Z,7.95
2019-05-09T02:20:44.619Z,7.87
2019-05-09T02:23:13.979Z,7.97
2019-05-09T02:25:43.823Z,8.20
2019-05-09T02:28:14.149Z,8.28
2019-05-09T02:30:45.005Z,7.90
2019-05-09T02:33:14.594Z,8.45
2019-05-09T02:35:55.863Z,7.30
2019-05-09T02:38:14.279Z,7.92
2019-05-09T02:40:43.219Z,7.90
2019-05-09T02:43:11.640Z,8.75
2019-05-09T02:45:49.352Z,7.50
2019-05-09T02:48:15.004Z,8.45
2019-05-09T02:50:43.430Z,9.78
2019-05-09T02:53:18.718Z,10.00
2019-05-09T02:55:49.197Z,10.15
2019-05-09T02:58:21.386Z,11.83
2019-05-09T03:00:51.440Z,10.45
2019-05-09T03:03:21.514Z,11.18
2019-05-09T03:05:59.647Z,11.22
2019-05-09T03:08:31.541Z,11.48
2019-05-09T03:11:00.036Z,12.78
2019-05-09T03:13:29.241Z,13.28
2019-05-09T03:15:59.518Z,14.43
2019-05-09T03:18:28.700Z,14.20
2019-05-09T03:21:08.790Z,15.70
2019-05-09T03:23:34.564Z,15.08
2019-05-09T03:26:09.135Z,16.27
2019-05-09T03:28:38.864Z,17.17
2019-05-09T03:31:11.962Z,18.45
2019-05-09T03:33:42.970Z,18.98
2019-05-09T03:36:13.120Z,18.35
2019-05-09T03:38:41.473Z,17.48
2019-05-09T03:41:09.894Z,18.62
2019-05-09T03:43:42.914Z,19.10
2019-05-09T03:46:28.076Z,21.40
2019-05-09T03:49:04.454Z,20.12
2019-05-09T03:51:33.792Z,20.97
2019-05-09T03:54:02.212Z,21.23
2019-05-09T03:56:43.822Z,22.10
2019-05-09T03:59:12.226Z,20.87
2019-05-09T04:01:40.658Z,22.60
2019-05-09T04:04:12.584Z,22.80
2019-05-09T04:06:41.007Z,24.65
2019-05-09T04:09:09.455Z,21.30
2019-05-09T04:11:38.260Z,22.02
2019-05-09T04:14:11.977Z,21.13
2019-05-09T04:16:40.382Z,23.25
2019-05-09T04:19:17.356Z,21.63
2019-05-09T04:21:45.159Z,21.82
2019-05-09T04:24:13.835Z,22.60
2019-05-09T04:26:44.575Z,23.22
2019-05-09T04:29:18.451Z,22.73
2019-05-09T04:31:50.975Z,22.25
2019-05-09T04:34:19.403Z,21.68
2019-05-09T04:36:48.446Z,23.42
2019-05-09T04:39:23.402Z,22.52
2019-05-09T04:41:48.663Z,23.60
2019-05-09T04:44:38.269Z,22.33
2019-05-09T04:47:08.684Z,21.25
2019-05-09T04:49:40.967Z,21.95
2019-05-09T04:52:07.727Z,19.77
2019-05-09T04:54:38.250Z,19.57
2019-05-09T04:57:07.752Z,19.27
2019-05-09T04:59:37.372Z,18.90
2019-05-09T05:02:42.970Z,19.27
2019-05-09T05:05:12.627Z,18.60
2019-05-09T05:07:41.063Z,17.30
2019-05-09T05:10:09.738Z,16.82
2019-05-09T05:12:38.766Z,14.90
2019-05-09T05:15:09.743Z,14.43
2019-05-09T05:17:38.187Z,13.65
2019-05-09T05:20:11.937Z,13.90
2019-05-09T05:22:42.008Z,13.53
2019-05-09T05:25:10.506Z,13.55
2019-05-09T05:27:41.573Z,12.95
2019-05-09T05:30:14.167Z,12.80
2019-05-09T05:32:44.244Z,12.13
2019-05-09T05:35:34.168Z,13.43
2019-05-09T05:38:08.513Z,14.10
2019-05-09T05:40:43.493Z,12.30
2019-05-09T05:43:08.752Z,12.40
2019-05-09T05:45:38.587Z,12.88
2019-05-09T05:48:10.912Z,11.95
2019-05-09T05:50:39.372Z,11.73
2019-05-09T05:53:08.022Z,13.15
2019-05-09T05:55:37.955Z,13.32
2019-05-09T05:58:08.634Z,13.75
2019-05-09T06:00:37.751Z,13.32
2019-05-09T06:03:08.579Z,14.07
2019-05-09T06:05:38.337Z,15.43
2019-05-09T06:08:08.183Z,15.35
2019-05-09T06:10:40.639Z,17.05
2019-05-09T06:13:11.797Z,17.95
2019-05-09T06:15:42.709Z,17.93
2019-05-09T06:18:13.643Z,18.55
2019-05-09T06:20:45.818Z,19.48
2019-05-09T06:23:17.432Z,18.98
2019-05-09T06:25:48.606Z,19.73
2019-05-09T06:28:19.576Z,21.07
2019-05-09T06:30:47.992Z,21.82
2019-05-09T06:33:18.065Z,21.00
2019-05-09T06:35:52.356Z,20.68
2019-05-09T06:38:20.777Z,22.80
2019-05-09T06:40:49.293Z,21.55
2019-05-09T06:43:29.044Z,23.47
2019-05-09T06:46:29.184Z,24.20
2019-05-09T06:49:24.351Z,22.87
2019-05-09T06:51:42.065Z,25.08
2019-05-09T06:54:10.503Z,24.63
2019-05-09T06:56:38.914Z,24.65
2019-05-09T06:59:07.728Z,23.87
2019-05-09T07:01:37.902Z,27.13
2019-05-09T07:04:24.824Z,27.73
2019-05-09T07:06:54.603Z,27.40
2019-05-09T07:09:33.576Z,28.20
2019-05-09T07:12:02.970Z,28.57
2019-05-09T07:14:37.559Z,28.55
2019-05-09T07:17:03.255Z,28.02
2019-05-09T07:19:31.882Z,26.50
2019-05-09T07:22:02.205Z,23.98
2019-05-09T07:24:31.097Z,24.57
2019-05-09T07:26:59.576Z,23.18
2019-05-09T07:29:29.646Z,23.67
2019-05-09T07:32:14.737Z,23.90
2019-05-09T07:34:44.787Z,22.98
2019-05-09T07:37:13.199Z,22.67
2019-05-09T07:39:41.610Z,24.35
2019-05-09T07:42:13.690Z,25.85
2019-05-09T07:44:49.589Z,25.10
2019-05-09T07:47:17.739Z,24.85
2019-05-09T07:49:48.130Z,26.65
2019-05-09T07:52:18.786Z,26.37
2019-05-09T07:54:48.321Z,25.32
2019-05-09T07:57:28.582Z,25.75
2019-05-09T08:00:03.342Z,23.15
2019-05-09T08:02:32.855Z,26.35
2019-05-09T08:05:01.277Z,24.87
2019-05-09T08:07:29.702Z,26.60
2019-05-09T08:09:58.186Z,28.15
2019-05-09T08:12:28.423Z,27.60
2019-05-09T08:15:10.151Z,28.85
2019-05-09T08:17:28.626Z,29.92
2019-05-09T08:19:58.377Z,30.80
2019-05-09T08:22:31.837Z,29.75
2019-05-09T08:24:57.710Z,28.75
2019-05-09T08:27:30.056Z,29.55
2019-05-09T08:29:58.362Z,28.60
2019-05-09T08:32:28.635Z,29.18
2019-05-09T08:34:57.832Z,32.63
2019-05-09T08:37:28.289Z,32.03
2019-05-09T08:39:57.902Z,28.67
2019-05-09T08:42:26.366Z,29.30
2019-05-09T08:44:54.800Z,28.95
2019-05-09T08:47:23.209Z,27.93
2019-05-09T08:49:53.290Z,25.68
2019-05-09T08:52:22.231Z,24.65
2019-05-09T08:54:59.579Z,24.92
2019-05-09T08:57:28.879Z,20.85
2019-05-09T08:59:59.006Z,20.43
2019-05-09T09:02:30.190Z,19.75
2019-05-09T09:04:58.704Z,20.95
2019-05-09T09:07:29.674Z,21.85
2019-05-09T09:09:57.869Z,22.20
2019-05-09T09:12:33.797Z,23.42
2019-05-09T09:14:58.578Z,22.90
2019-05-09T09:17:29.265Z,24.82
2019-05-09T09:19:58.376Z,24.85
2019-05-09T09:22:28.396Z,25.88
2019-05-09T09:24:58.678Z,26.55
2019-05-09T09:27:27.990Z,28.15
2019-05-09T09:29:58.525Z,28.65
2019-05-09T09:32:28.077Z,29.63
2019-05-09T09:35:00.496Z,30.88
2019-05-09T09:37:44.976Z,27.98
2019-05-09T09:40:01.834Z,30.95
2019-05-09T09:42:30.311Z,30.32
2019-05-09T09:44:58.813Z,29.18
2019-05-09T09:47:31.017Z,29.45
2019-05-09T09:50:00.543Z,30.55
2019-05-09T09:52:34.137Z,28.50
2019-05-09T09:54:59.196Z,28.42
2019-05-09T09:57:28.847Z,28.23
2019-05-09T10:00:14.373Z,25.52
2019-05-09T10:02:42.837Z,25.32
2019-05-09T10:05:14.986Z,22.43
2019-05-09T10:07:44.655Z,23.18
2019-05-09T10:10:18.443Z,21.27
2019-05-09T10:12:49.346Z,20.02
2019-05-09T10:15:22.160Z,19.50
2019-05-09T10:18:01.024Z,18.98
2019-05-09T10:20:39.605Z,17.27
2019-05-09T10:23:18.286Z,17.42
2019-05-09T10:25:43.873Z,15.38
2019-05-09T10:28:12.299Z,16.32
2019-05-09T10:30:43.359Z,14.98
2019-05-09T10:33:18.565Z,14.68
2019-05-09T10:35:47.925Z,14.13
2019-05-09T10:38:20.295Z,12.78
2019-05-09T10:40:48.579Z,13.97
2019-05-09T10:43:37.612Z,13.10
2019-05-09T10:46:19.273Z,14.93
2019-05-09T10:48:48.690Z,12.13
2019-05-09T10:51:18.550Z,11.90
2019-05-09T10:53:48.123Z,12.10
2019-05-09T10:56:18.827Z,11.95
2019-05-09T10:58:48.188Z,12.73
2019-05-09T11:01:18.557Z,11.08
2019-05-09T11:03:48.241Z,10.10
2019-05-09T11:06:18.394Z,10.40
2019-05-09T11:08:47.818Z,10.45
2019-05-09T11:11:18.182Z,8.20
2019-05-09T11:13:48.172Z,8.33
2019-05-09T11:16:18.682Z,6.97
2019-05-09T11:18:48.641Z,6.92
2019-05-09T11:21:28.609Z,6.92
2019-05-09T11:24:01.354Z,7.33
2019-05-09T11:26:33.644Z,7.83
2019-05-09T11:29:02.046Z,7.53
2019-05-09T11:31:30.462Z,6.15
2019-05-09T11:34:05.214Z,7.35
2019-05-09T11:36:33.593Z,6.45
2019-05-09T11:39:02.259Z,5.92
2019-05-09T11:44:30.878Z,6.42
2019-05-09T11:47:01.687Z,6.85
2019-05-09T11:49:39.115Z,6.25
2019-05-09T11:52:08.401Z,6.45
2019-05-09T11:54:38.829Z,5.45
2019-05-09T11:57:07.647Z,5.25
2019-05-09T11:59:37.954Z,4.75
2019-05-09T12:02:08.848Z,2.70
2019-05-09T12:04:37.995Z,2.40
2019-05-09T12:07:07.919Z,2.92
2019-05-09T12:09:38.508Z,2.37
2019-05-09T12:12:06.591Z,2.12
2019-05-09T12:14:35.003Z,2.15
2019-05-09T12:17:08.324Z,1.90
2019-05-09T12:19:38.065Z,2.10
2019-05-09T12:22:10.413Z,1.62
2019-05-09T12:24:38.867Z,1.85
2019-05-09T12:27:08.852Z,1.75
2019-05-09T12:29:38.712Z,2.60
2019-05-09T12:32:11.090Z,2.50
2019-05-09T12:34:39.499Z,1.98
2019-05-09T12:37:09.516Z,2.77
2019-05-09T12:39:38.685Z,2.52
2019-05-09T12:42:08.850Z,3.15
2019-05-09T12:44:37.325Z,3.07
2019-05-09T12:47:05.768Z,2.40
2019-05-09T12:49:34.219Z,2.70
2019-05-09T12:52:10.389Z,2.50
2019-05-09T12:54:38.856Z,3.20
2019-05-09T12:57:08.113Z,3.17
2019-05-09T12:59:48.584Z,2.20
2019-05-09T13:02:09.458Z,2.58
2019-05-09T13:04:47.728Z,2.40
2019-05-09T13:07:11.827Z,2.22
2019-05-09T13:09:41.048Z,2.90
2019-05-09T13:12:10.479Z,3.35
2019-05-09T13:14:38.909Z,2.47
2019-05-09T13:17:14.578Z,2.80
2019-05-09T13:19:48.165Z,3.30
2019-05-09T13:22:18.554Z,3.42
2019-05-09T13:24:47.550Z,2.72
2019-05-09T13:27:18.972Z,2.60
2019-05-09T13:29:52.657Z,1.87
2019-05-09T13:32:28.013Z,2.72
2019-05-09T13:35:09.956Z,2.62
2019-05-09T13:37:44.732Z,2.45
2019-05-09T13:40:18.576Z,2.25
2019-05-09T13:42:48.744Z,2.30
2019-05-09T13:45:23.782Z,2.22
2019-05-09T13:47:52.239Z,2.05
2019-05-09T13:50:23.174Z,2.17
2019-05-09T13:52:55.591Z,2.05
2019-05-09T13:55:24.065Z,3.02
2019-05-09T13:57:57.566Z,1.70
2019-05-09T14:00:28.460Z,2.05
2019-05-09T14:02:56.497Z,2.00
2019-05-09T14:05:29.155Z,1.80
2019-05-09T14:08:04.371Z,2.00
2019-05-09T14:10:33.971Z,1.82
2019-05-09T14:13:09.772Z,1.50
2019-05-09T14:15:32.510Z,1.40
2019-05-09T14:18:00.927Z,1.42
2019-05-09T14:20:29.315Z,1.50
2019-05-09T14:23:01.347Z,1.45
2019-05-09T14:25:29.779Z,1.70
2019-05-09T14:27:58.176Z,1.35
2019-05-09T14:30:29.310Z,1.47
2019-05-09T14:33:04.565Z,1.02
2019-05-09T14:35:34.433Z,1.57
2019-05-09T14:38:03.057Z,1.42
2019-05-09T14:40:31.537Z,1.33
2019-05-09T14:43:04.068Z,1.72
2019-05-09T14:45:30.091Z,1.30
2019-05-09T14:47:58.839Z,1.60
2019-05-09T14:50:28.502Z,1.57
2019-05-09T14:52:58.425Z,1.42
2019-05-09T14:55:30.887Z,1.10
2019-05-09T14:57:59.295Z,1.10
2019-05-09T15:00:27.802Z,1.20
2019-05-09T15:02:58.128Z,1.80
2019-05-09T15:05:27.891Z,1.07
2019-05-09T15:07:59.245Z,1.27
2019-05-09T15:10:27.710Z,1.93
2019-05-09T15:12:58.385Z,1.02
2019-05-09T15:15:32.044Z,1.00
2019-05-09T15:17:58.430Z,1.30
2019-05-09T15:20:28.078Z,0.80
2019-05-09T15:22:58.664Z,1.10
2019-05-09T15:25:28.131Z,1.17
2019-05-09T15:27:58.016Z,2.05
2019-05-09T15:30:28.719Z,1.40
2019-05-09T15:32:58.546Z,1.22
2019-05-09T15:35:28.133Z,1.42
2019-05-09T15:37:59.006Z,1.20
2019-05-09T15:40:28.170Z,1.45
2019-05-09T15:42:58.894Z,1.20
2019-05-09T15:45:28.635Z,1.22
2019-05-09T15:47:58.315Z,1.42
2019-05-09T15:50:29.411Z,1.30
2019-05-09T15:53:00.555Z,1.30
2019-05-09T15:55:30.819Z,1.02
2019-05-09T15:58:01.389Z,1.80
2019-05-09T16:00:33.600Z,1.90
2019-05-09T16:03:02.024Z,1.27
2019-05-09T16:05:35.000Z,1.32
2019-05-09T16:08:03.396Z,1.20
2019-05-09T16:10:31.829Z,1.35
2019-05-09T16:13:00.248Z,1.55
2019-05-09T16:15:32.418Z,1.35
2019-05-09T16:18:00.818Z,1.57
2019-05-09T16:20:41.050Z,1.52
2019-05-09T16:23:08.489Z,1.55
2019-05-09T16:25:40.550Z,1.40
2019-05-09T16:28:08.997Z,1.10
2019-05-09T16:30:39.948Z,1.10
2019-05-09T16:33:08.243Z,1.20
2019-05-09T16:35:39.623Z,1.40
2019-05-09T16:38:10.840Z,1.20
2019-05-09T16:40:38.740Z,1.25
2019-05-09T16:43:09.077Z,1.10
2019-05-09T16:45:38.038Z,1.20
2019-05-09T16:48:11.408Z,1.32
2019-05-09T16:50:41.894Z,1.45
2019-05-09T16:53:09.006Z,1.90
2019-05-09T16:55:39.441Z,1.60
2019-05-09T16:58:08.691Z,1.30
2019-05-09T17:00:47.664Z,1.50
2019-05-09T17:03:19.057Z,1.45
2019-05-09T17:05:50.089Z,1.27
2019-05-09T17:08:18.514Z,1.27
2019-05-09T17:10:49.691Z,1.22
2019-05-09T17:13:18.646Z,1.67
2019-05-09T17:15:48.407Z,1.10
2019-05-09T17:18:18.946Z,1.30
2019-05-09T17:20:48.612Z,1.32
2019-05-09T17:23:22.094Z,1.22
2019-05-09T17:25:57.952Z,1.32
2019-05-09T17:28:28.483Z,1.20
2019-05-09T17:30:57.922Z,1.10
2019-05-09T17:33:28.774Z,1.60
2019-05-09T17:35:57.748Z,1.52
2019-05-09T17:38:27.909Z,2.25
2019-05-09T17:40:57.690Z,1.60
2019-05-09T17:43:27.890Z,1.37
2019-05-09T17:45:58.392Z,1.25
2019-05-09T17:48:28.514Z,1.27
2019-05-09T17:50:59.832Z,1.00
2019-05-09T17:53:33.193Z,1.00
2019-05-09T17:55:59.571Z,1.27
2019-05-09T17:58:33.408Z,1.10
2019-05-09T18:01:01.982Z,1.17
2019-05-09T18:03:32.757Z,1.10
2019-05-09T18:06:09.605Z,1.45
2019-05-09T18:08:38.009Z,1.40
2019-05-09T18:11:09.195Z,1.10
2019-05-09T18:13:38.591Z,1.30
2019-05-09T18:16:06.955Z,1.35
2019-05-09T18:18:35.588Z,1.37
2019-05-09T18:21:05.370Z,1.20
2019-05-09T18:23:33.852Z,1.50
2019-05-09T18:26:03.866Z,1.62
2019-05-09T18:28:32.328Z,1.40
2019-05-09T18:31:00.789Z,1.60
2019-05-09T18:33:30.829Z,1.55
2019-05-09T18:35:59.246Z,1.42
2019-05-09T18:38:33.237Z,1.60
2019-05-09T18:41:02.201Z,1.77
2019-05-09T18:43:31.351Z,9.23
2019-05-09T18:46:08.394Z,6.80
2019-05-09T18:48:41.892Z,3.83
2019-05-09T18:51:10.761Z,2.60
2019-05-09T18:53:44.378Z,1.80
2019-05-09T18:56:12.788Z,1.70
2019-05-09T18:58:42.156Z,1.62
2019-05-09T19:01:14.283Z,2.12
2019-05-09T19:03:42.692Z,2.22
2019-05-09T19:06:12.852Z,1.95
2019-05-09T19:08:42.474Z,1.92
2019-05-09T19:11:11.092Z,1.60
2019-05-09T19:13:43.358Z,1.72
2019-05-09T19:16:22.425Z,2.02
2019-05-09T19:18:54.105Z,1.90
2019-05-09T19:21:24.165Z,1.98
2019-05-09T19:23:54.498Z,1.90
2019-05-09T19:26:37.919Z,2.55
2019-05-09T19:29:08.479Z,2.10
2019-05-09T19:31:37.464Z,2.35
2019-05-09T19:34:06.999Z,2.00
2019-05-09T19:36:35.645Z,2.00
2019-05-09T19:39:13.194Z,2.20
2019-05-09T19:41:48.410Z,2.27
2019-05-09T19:44:20.512Z,2.20
2019-05-09T19:46:49.808Z,2.20
2019-05-09T19:49:22.026Z,2.10
2019-05-09T19:51:52.545Z,2.22
2019-05-09T19:54:21.932Z,3.40
2019-05-09T19:56:52.853Z,5.12
2019-05-09T19:59:24.612Z,6.97
2019-05-09T20:01:53.032Z,13.68
2019-05-09T20:04:21.459Z,18.75
2019-05-09T20:06:49.871Z,19.77
2019-05-09T20:09:22.610Z,18.63
2019-05-09T20:11:57.625Z,16.85
2019-05-09T20:14:30.382Z,22.85
2019-05-09T20:16:58.927Z,19.62
2019-05-09T20:19:27.368Z,13.50
2019-05-09T20:21:55.792Z,16.23
2019-05-09T20:24:25.317Z,6.25
2019-05-09T20:27:00.135Z,3.92
2019-05-09T20:29:32.210Z,3.55
2019-05-09T20:32:00.633Z,4.10
2019-05-09T20:34:29.038Z,4.08
2019-05-09T20:37:01.119Z,3.37
2019-05-09T20:39:31.011Z,2.98
2019-05-09T20:42:03.252Z,2.70
2019-05-09T20:44:54.993Z,2.42
2019-05-09T20:47:29.676Z,3.08
2019-05-09T20:50:09.797Z,2.65
2019-05-09T20:53:08.474Z,3.10
2019-05-09T20:55:41.223Z,2.80
2019-05-09T20:58:10.864Z,3.20
2019-05-09T21:00:41.961Z,2.80
2019-05-09T21:03:14.288Z,3.52
2019-05-09T21:05:45.359Z,3.27
2019-05-09T21:08:18.984Z,3.30
2019-05-09T21:10:53.814Z,3.90
2019-05-09T21:13:22.368Z,3.20
2019-05-09T21:15:53.478Z,3.55
2019-05-09T21:18:26.313Z,3.37
2019-05-09T21:21:08.089Z,3.43
2019-05-09T21:23:39.660Z,3.20
2019-05-09T21:26:07.110Z,3.35
2019-05-09T21:28:35.760Z,3.30
2019-05-09T21:31:07.377Z,3.45
2019-05-09T21:33:39.726Z,3.43
2019-05-09T21:36:14.466Z,3.60
2019-05-09T21:38:46.721Z,3.47
2019-05-09T21:43:44.125Z,3.33
2019-05-09T21:46:13.753Z,4.12
2019-05-09T21:48:42.642Z,3.05
2019-05-09T21:51:23.731Z,3.65
2019-05-09T21:53:52.231Z,3.80
2019-05-09T21:56:21.131Z,4.75
2019-05-09T21:58:49.653Z,4.80
2019-05-09T22:01:23.728Z,4.08
2019-05-09T22:03:52.579Z,4.42
2019-05-09T22:06:21.294Z,4.55
2019-05-09T22:08:49.847Z,4.42
2019-05-09T22:11:18.459Z,4.65
2019-05-09T22:13:53.287Z,5.00
2019-05-09T22:16:22.245Z,5.40
2019-05-09T22:18:55.024Z,5.00
2019-05-09T22:21:23.824Z,4.20
2019-05-09T22:23:56.575Z,5.20
2019-05-09T22:26:26.639Z,5.03
2019-05-09T22:28:55.215Z,5.35
2019-05-09T22:31:26.773Z,4.17
2019-05-09T22:33:56.868Z,4.70
2019-05-09T22:36:25.418Z,5.00
2019-05-09T22:38:54.002Z,5.28
2019-05-09T22:41:24.026Z,5.45
2019-05-09T22:43:52.836Z,5.53
2019-05-09T22:46:27.508Z,6.10
2019-05-09T22:48:56.112Z,5.37
2019-05-09T22:51:24.679Z,5.45
2019-05-09T22:53:53.219Z,5.45
2019-05-09T22:56:22.722Z,6.08
2019-05-09T22:58:52.336Z,5.37
2019-05-09T23:01:20.911Z,5.53
2019-05-09T23:03:52.184Z,5.37
2019-05-09T23:06:28.489Z,5.42
2019-05-09T23:08:55.780Z,5.72
2019-05-09T23:11:26.988Z,5.90
2019-05-09T23:13:56.026Z,5.60
2019-05-09T23:16:27.493Z,5.37
2019-05-09T23:18:56.131Z,5.22
2019-05-09T23:21:27.470Z,4.85
2019-05-09T23:24:00.708Z,5.15
2019-05-09T23:26:29.459Z,4.75
2019-05-09T23:29:02.004Z,4.90
2019-05-09T23:31:32.399Z,4.78
2019-05-09T23:34:00.965Z,4.45
2019-05-09T23:36:31.599Z,4.33
2019-05-09T23:39:21.455Z,4.74
2019-05-09T23:41:53.459Z,5.85
2019-05-09T23:44:28.409Z,4.72
2019-05-09T23:46:57.211Z,4.80
2019-05-09T23:49:32.374Z,4.62
2019-05-09T23:52:03.218Z,5.00
2019-05-09T23:54:53.914Z,5.10
2019-05-09T23:57:39.619Z,4.67
